sensor_id;sensor_type;location;lat;lon;timestamp;temperature;humidity
39919;DHT22;25589;51.552;13.424;2022-07-29T00:01:59;19.70;68.90
39919;DHT22;25589;51.552;13.424;2022-07-29T00:04:25;19.70;69.20
39919;DHT22;25589;51.552;13.424;2022-07-29T00:06:50;19.70;69.20
39919;DHT22;25589;51.552;13.424;2022-07-29T00:09:16;19.70;69.30
39919;DHT22;25589;51.552;13.424;2022-07-29T00:11:41;19.60;69.60
39919;DHT22;25589;51.552;13.424;2022-07-29T00:14:07;19.60;69.80
39919;DHT22;25589;51.552;13.424;2022-07-29T00:16:32;19.60;69.70
39919;DHT22;25589;51.552;13.424;2022-07-29T00:18:58;19.50;70.10
39919;DHT22;25589;51.552;13.424;2022-07-29T00:21:23;19.50;70.20
39919;DHT22;25589;51.552;13.424;2022-07-29T00:23:49;19.40;70.30
39919;DHT22;25589;51.552;13.424;2022-07-29T00:26:14;19.40;70.40
39919;DHT22;25589;51.552;13.424;2022-07-29T00:28:40;19.40;70.40
39919;DHT22;25589;51.552;13.424;2022-07-29T00:31:05;19.40;70.50
39919;DHT22;25589;51.552;13.424;2022-07-29T00:33:31;19.40;70.50
39919;DHT22;25589;51.552;13.424;2022-07-29T00:35:56;19.40;70.80
39919;DHT22;25589;51.552;13.424;2022-07-29T00:38:22;19.40;70.80
39919;DHT22;25589;51.552;13.424;2022-07-29T00:40:47;19.30;70.90
39919;DHT22;25589;51.552;13.424;2022-07-29T00:43:13;19.30;70.80
39919;DHT22;25589;51.552;13.424;2022-07-29T00:45:39;19.30;70.90
39919;DHT22;25589;51.552;13.424;2022-07-29T00:48:05;19.20;71.20
39919;DHT22;25589;51.552;13.424;2022-07-29T00:50:31;19.20;71.50
39919;DHT22;25589;51.552;13.424;2022-07-29T00:52:57;19.20;71.80
39919;DHT22;25589;51.552;13.424;2022-07-29T00:55:22;19.10;72.00
39919;DHT22;25589;51.552;13.424;2022-07-29T00:57:48;19.10;71.90
39919;DHT22;25589;51.552;13.424;2022-07-29T01:00:18;19.10;72.30
39919;DHT22;25589;51.552;13.424;2022-07-29T01:02:44;19.10;72.20
39919;DHT22;25589;51.552;13.424;2022-07-29T01:05:09;19.00;72.40
39919;DHT22;25589;51.552;13.424;2022-07-29T01:07:36;19.00;72.40
39919;DHT22;25589;51.552;13.424;2022-07-29T01:10:05;19.00;72.60
39919;DHT22;25589;51.552;13.424;2022-07-29T01:12:31;19.00;72.60
39919;DHT22;25589;51.552;13.424;2022-07-29T01:14:58;19.00;72.60
39919;DHT22;25589;51.552;13.424;2022-07-29T01:17:29;18.90;72.70
39919;DHT22;25589;51.552;13.424;2022-07-29T01:27:47;18.80;73.50
39919;DHT22;25589;51.552;13.424;2022-07-29T01:33:19;18.70;73.80
39919;DHT22;25589;51.552;13.424;2022-07-29T01:36:07;18.60;74.00
39919;DHT22;25589;51.552;13.424;2022-07-29T01:38:33;18.70;74.00
39919;DHT22;25589;51.552;13.424;2022-07-29T01:41:05;18.70;74.20
39919;DHT22;25589;51.552;13.424;2022-07-29T01:43:40;18.60;74.30
39919;DHT22;25589;51.552;13.424;2022-07-29T01:46:09;18.60;74.40
39919;DHT22;25589;51.552;13.424;2022-07-29T01:48:47;18.60;74.50
39919;DHT22;25589;51.552;13.424;2022-07-29T01:51:21;18.60;74.40
39919;DHT22;25589;51.552;13.424;2022-07-29T01:54:01;18.60;74.50
39919;DHT22;25589;51.552;13.424;2022-07-29T01:56:27;18.60;74.50
39919;DHT22;25589;51.552;13.424;2022-07-29T01:58:56;18.60;74.80
39919;DHT22;25589;51.552;13.424;2022-07-29T02:01:22;18.50;75.00
39919;DHT22;25589;51.552;13.424;2022-07-29T02:03:48;18.50;75.10
39919;DHT22;25589;51.552;13.424;2022-07-29T02:06:17;18.50;75.30
39919;DHT22;25589;51.552;13.424;2022-07-29T02:08:44;18.50;75.10
39919;DHT22;25589;51.552;13.424;2022-07-29T02:11:11;18.60;75.10
39919;DHT22;25589;51.552;13.424;2022-07-29T02:13:36;18.50;75.20
39919;DHT22;25589;51.552;13.424;2022-07-29T02:16:02;18.60;75.20
39919;DHT22;25589;51.552;13.424;2022-07-29T02:18:30;18.50;75.30
39919;DHT22;25589;51.552;13.424;2022-07-29T02:20:57;18.50;75.60
39919;DHT22;25589;51.552;13.424;2022-07-29T02:23:23;18.50;75.60
39919;DHT22;25589;51.552;13.424;2022-07-29T02:25:55;18.50;75.60
39919;DHT22;25589;51.552;13.424;2022-07-29T02:28:25;18.50;75.60
39919;DHT22;25589;51.552;13.424;2022-07-29T02:30:52;18.40;75.80
39919;DHT22;25589;51.552;13.424;2022-07-29T02:33:18;18.40;75.90
39919;DHT22;25589;51.552;13.424;2022-07-29T02:35:44;18.50;76.00
39919;DHT22;25589;51.552;13.424;2022-07-29T02:38:12;18.50;75.90
39919;DHT22;25589;51.552;13.424;2022-07-29T02:40:56;18.50;75.80
39919;DHT22;25589;51.552;13.424;2022-07-29T02:43:22;18.50;76.00
39919;DHT22;25589;51.552;13.424;2022-07-29T02:45:48;18.50;76.10
39919;DHT22;25589;51.552;13.424;2022-07-29T02:48:16;18.50;76.20
39919;DHT22;25589;51.552;13.424;2022-07-29T02:50:48;18.50;76.30
39919;DHT22;25589;51.552;13.424;2022-07-29T02:53:16;18.50;76.30
39919;DHT22;25589;51.552;13.424;2022-07-29T02:55:43;18.50;76.10
39919;DHT22;25589;51.552;13.424;2022-07-29T03:01:13;18.40;76.70
39919;DHT22;25589;51.552;13.424;2022-07-29T03:03:39;18.30;77.10
39919;DHT22;25589;51.552;13.424;2022-07-29T03:06:05;18.30;77.10
39919;DHT22;25589;51.552;13.424;2022-07-29T03:08:32;18.20;77.10
39919;DHT22;25589;51.552;13.424;2022-07-29T03:10:59;18.20;77.20
39919;DHT22;25589;51.552;13.424;2022-07-29T03:13:25;18.20;77.30
39919;DHT22;25589;51.552;13.424;2022-07-29T03:15:52;18.20;77.40
39919;DHT22;25589;51.552;13.424;2022-07-29T03:18:18;18.20;77.40
39919;DHT22;25589;51.552;13.424;2022-07-29T03:20:44;18.20;77.60
39919;DHT22;25589;51.552;13.424;2022-07-29T03:23:09;18.20;77.70
39919;DHT22;25589;51.552;13.424;2022-07-29T03:25:35;18.20;77.60
39919;DHT22;25589;51.552;13.424;2022-07-29T03:28:00;18.20;77.70
39919;DHT22;25589;51.552;13.424;2022-07-29T03:30:26;18.20;78.60
39919;DHT22;25589;51.552;13.424;2022-07-29T03:32:51;18.10;77.90
39919;DHT22;25589;51.552;13.424;2022-07-29T03:35:17;18.10;78.30
39919;DHT22;25589;51.552;13.424;2022-07-29T03:37:43;18.00;78.30
39919;DHT22;25589;51.552;13.424;2022-07-29T03:40:09;18.00;78.70
39919;DHT22;25589;51.552;13.424;2022-07-29T03:42:36;18.00;78.70
39919;DHT22;25589;51.552;13.424;2022-07-29T03:45:04;18.00;78.90
39919;DHT22;25589;51.552;13.424;2022-07-29T03:47:30;18.00;79.10
39919;DHT22;25589;51.552;13.424;2022-07-29T03:50:02;18.00;78.90
39919;DHT22;25589;51.552;13.424;2022-07-29T03:52:30;18.00;78.90
39919;DHT22;25589;51.552;13.424;2022-07-29T03:54:55;18.00;79.20
39919;DHT22;25589;51.552;13.424;2022-07-29T03:57:23;17.90;79.30
39919;DHT22;25589;51.552;13.424;2022-07-29T03:59:49;17.90;79.30
39919;DHT22;25589;51.552;13.424;2022-07-29T04:02:16;18.00;79.50
39919;DHT22;25589;51.552;13.424;2022-07-29T04:04:41;18.00;79.50
39919;DHT22;25589;51.552;13.424;2022-07-29T04:07:07;18.00;79.30
39919;DHT22;25589;51.552;13.424;2022-07-29T04:09:36;18.00;79.40
39919;DHT22;25589;51.552;13.424;2022-07-29T04:12:02;18.00;79.30
39919;DHT22;25589;51.552;13.424;2022-07-29T04:14:27;18.00;79.50
39919;DHT22;25589;51.552;13.424;2022-07-29T04:16:52;18.00;79.50
39919;DHT22;25589;51.552;13.424;2022-07-29T04:19:18;18.00;79.30
39919;DHT22;25589;51.552;13.424;2022-07-29T04:21:43;18.00;79.30
39919;DHT22;25589;51.552;13.424;2022-07-29T04:24:10;18.00;79.30
39919;DHT22;25589;51.552;13.424;2022-07-29T04:26:35;18.10;79.40
39919;DHT22;25589;51.552;13.424;2022-07-29T04:29:01;18.00;79.50
39919;DHT22;25589;51.552;13.424;2022-07-29T04:31:26;18.10;79.40
39919;DHT22;25589;51.552;13.424;2022-07-29T04:33:52;18.10;79.30
39919;DHT22;25589;51.552;13.424;2022-07-29T04:36:18;18.10;79.20
39919;DHT22;25589;51.552;13.424;2022-07-29T04:38:43;18.10;79.20
39919;DHT22;25589;51.552;13.424;2022-07-29T04:41:09;18.20;79.50
39919;DHT22;25589;51.552;13.424;2022-07-29T04:43:34;18.20;79.10
39919;DHT22;25589;51.552;13.424;2022-07-29T04:46:00;18.20;79.20
39919;DHT22;25589;51.552;13.424;2022-07-29T04:48:26;18.20;79.40
39919;DHT22;25589;51.552;13.424;2022-07-29T04:50:51;18.20;79.00
39919;DHT22;25589;51.552;13.424;2022-07-29T04:53:17;18.30;79.30
39919;DHT22;25589;51.552;13.424;2022-07-29T04:55:43;18.30;79.20
39919;DHT22;25589;51.552;13.424;2022-07-29T04:58:08;18.20;79.20
39919;DHT22;25589;51.552;13.424;2022-07-29T05:00:34;18.30;79.10
39919;DHT22;25589;51.552;13.424;2022-07-29T05:02:59;18.30;79.10
39919;DHT22;25589;51.552;13.424;2022-07-29T05:05:25;18.30;79.00
39919;DHT22;25589;51.552;13.424;2022-07-29T05:07:50;18.40;78.90
39919;DHT22;25589;51.552;13.424;2022-07-29T05:10:16;18.40;78.90
39919;DHT22;25589;51.552;13.424;2022-07-29T05:12:41;18.40;79.00
39919;DHT22;25589;51.552;13.424;2022-07-29T05:15:07;18.50;78.40
39919;DHT22;25589;51.552;13.424;2022-07-29T05:17:33;18.50;78.60
39919;DHT22;25589;51.552;13.424;2022-07-29T05:19:58;18.50;78.70
39919;DHT22;25589;51.552;13.424;2022-07-29T05:22:24;18.50;78.30
39919;DHT22;25589;51.552;13.424;2022-07-29T05:24:49;18.60;78.30
39919;DHT22;25589;51.552;13.424;2022-07-29T05:27:15;18.60;78.30
39919;DHT22;25589;51.552;13.424;2022-07-29T05:29:40;18.60;78.20
39919;DHT22;25589;51.552;13.424;2022-07-29T05:32:06;18.70;78.30
39919;DHT22;25589;51.552;13.424;2022-07-29T05:34:31;18.80;77.90
39919;DHT22;25589;51.552;13.424;2022-07-29T05:36:57;18.80;77.80
39919;DHT22;25589;51.552;13.424;2022-07-29T05:39:23;18.80;77.80
39919;DHT22;25589;51.552;13.424;2022-07-29T05:41:48;18.90;77.50
39919;DHT22;25589;51.552;13.424;2022-07-29T05:44:14;19.00;77.60
39919;DHT22;25589;51.552;13.424;2022-07-29T05:46:39;19.00;77.40
39919;DHT22;25589;51.552;13.424;2022-07-29T05:49:05;19.00;77.40
39919;DHT22;25589;51.552;13.424;2022-07-29T05:51:32;19.10;77.30
39919;DHT22;25589;51.552;13.424;2022-07-29T05:53:57;19.20;77.20
39919;DHT22;25589;51.552;13.424;2022-07-29T05:56:23;19.30;77.00
39919;DHT22;25589;51.552;13.424;2022-07-29T05:58:48;19.30;77.00
39919;DHT22;25589;51.552;13.424;2022-07-29T06:01:14;19.40;76.90
39919;DHT22;25589;51.552;13.424;2022-07-29T06:03:39;19.40;76.60
39919;DHT22;25589;51.552;13.424;2022-07-29T06:06:06;19.50;76.40
39919;DHT22;25589;51.552;13.424;2022-07-29T06:08:32;19.50;76.10
39919;DHT22;25589;51.552;13.424;2022-07-29T06:10:59;19.60;76.30
39919;DHT22;25589;51.552;13.424;2022-07-29T06:13:25;19.70;76.20
39919;DHT22;25589;51.552;13.424;2022-07-29T06:15:50;19.70;76.10
39919;DHT22;25589;51.552;13.424;2022-07-29T06:18:16;19.80;75.90
39919;DHT22;25589;51.552;13.424;2022-07-29T06:20:41;19.80;75.80
39919;DHT22;25589;51.552;13.424;2022-07-29T06:23:07;19.80;75.90
39919;DHT22;25589;51.552;13.424;2022-07-29T06:25:32;19.90;75.90
39919;DHT22;25589;51.552;13.424;2022-07-29T06:28:00;19.90;76.10
39919;DHT22;25589;51.552;13.424;2022-07-29T06:30:26;20.00;76.00
39919;DHT22;25589;51.552;13.424;2022-07-29T06:32:52;20.10;75.90
39919;DHT22;25589;51.552;13.424;2022-07-29T06:35:17;20.10;76.10
39919;DHT22;25589;51.552;13.424;2022-07-29T06:37:43;20.20;76.10
39919;DHT22;25589;51.552;13.424;2022-07-29T06:40:08;20.20;75.90
39919;DHT22;25589;51.552;13.424;2022-07-29T06:42:53;20.30;75.90
39919;DHT22;25589;51.552;13.424;2022-07-29T06:45:18;20.40;75.50
39919;DHT22;25589;51.552;13.424;2022-07-29T06:47:43;20.50;75.60
39919;DHT22;25589;51.552;13.424;2022-07-29T06:50:09;20.60;75.40
39919;DHT22;25589;51.552;13.424;2022-07-29T06:52:38;20.60;74.90
39919;DHT22;25589;51.552;13.424;2022-07-29T06:55:04;20.60;75.00
39919;DHT22;25589;51.552;13.424;2022-07-29T06:57:30;20.70;74.90
39919;DHT22;25589;51.552;13.424;2022-07-29T06:59:58;20.80;74.70
39919;DHT22;25589;51.552;13.424;2022-07-29T07:02:24;20.90;74.30
39919;DHT22;25589;51.552;13.424;2022-07-29T07:04:49;21.00;74.00
39919;DHT22;25589;51.552;13.424;2022-07-29T07:07:15;21.10;73.70
39919;DHT22;25589;51.552;13.424;2022-07-29T07:09:40;21.20;73.20
39919;DHT22;25589;51.552;13.424;2022-07-29T07:12:06;21.40;73.10
39919;DHT22;25589;51.552;13.424;2022-07-29T07:14:31;21.50;72.50
39919;DHT22;25589;51.552;13.424;2022-07-29T07:16:57;21.60;71.80
39919;DHT22;25589;51.552;13.424;2022-07-29T07:19:22;21.70;71.90
39919;DHT22;25589;51.552;13.424;2022-07-29T07:21:48;21.80;72.00
39919;DHT22;25589;51.552;13.424;2022-07-29T07:24:13;21.90;70.70
39919;DHT22;25589;51.552;13.424;2022-07-29T07:26:39;22.10;71.10
39919;DHT22;25589;51.552;13.424;2022-07-29T07:29:05;22.20;70.50
39919;DHT22;25589;51.552;13.424;2022-07-29T07:31:30;22.40;70.40
39919;DHT22;25589;51.552;13.424;2022-07-29T07:33:56;22.40;70.00
39919;DHT22;25589;51.552;13.424;2022-07-29T07:36:22;22.50;69.50
39919;DHT22;25589;51.552;13.424;2022-07-29T07:38:47;22.60;69.10
39919;DHT22;25589;51.552;13.424;2022-07-29T07:41:13;22.60;68.40
39919;DHT22;25589;51.552;13.424;2022-07-29T07:43:38;22.70;68.60
39919;DHT22;25589;51.552;13.424;2022-07-29T07:46:04;22.80;68.30
39919;DHT22;25589;51.552;13.424;2022-07-29T07:48:29;22.90;68.40
39919;DHT22;25589;51.552;13.424;2022-07-29T07:50:55;23.00;67.60
39919;DHT22;25589;51.552;13.424;2022-07-29T07:53:21;23.10;67.10
39919;DHT22;25589;51.552;13.424;2022-07-29T07:55:46;23.10;67.00
39919;DHT22;25589;51.552;13.424;2022-07-29T07:58:12;23.20;67.10
39919;DHT22;25589;51.552;13.424;2022-07-29T08:00:37;23.30;66.50
39919;DHT22;25589;51.552;13.424;2022-07-29T08:03:03;23.30;67.00
39919;DHT22;25589;51.552;13.424;2022-07-29T08:05:28;23.30;66.40
39919;DHT22;25589;51.552;13.424;2022-07-29T08:07:54;23.30;66.00
39919;DHT22;25589;51.552;13.424;2022-07-29T08:10:19;23.30;66.40
39919;DHT22;25589;51.552;13.424;2022-07-29T08:13:07;23.50;66.00
39919;DHT22;25589;51.552;13.424;2022-07-29T08:15:32;23.60;65.90
39919;DHT22;25589;51.552;13.424;2022-07-29T08:17:58;23.70;65.60
39919;DHT22;25589;51.552;13.424;2022-07-29T08:20:24;23.70;65.80
39919;DHT22;25589;51.552;13.424;2022-07-29T08:22:49;23.80;65.50
39919;DHT22;25589;51.552;13.424;2022-07-29T08:25:15;23.80;64.90
39919;DHT22;25589;51.552;13.424;2022-07-29T08:27:40;23.90;64.90
39919;DHT22;25589;51.552;13.424;2022-07-29T08:30:06;23.90;64.80
39919;DHT22;25589;51.552;13.424;2022-07-29T08:32:32;24.00;65.00
39919;DHT22;25589;51.552;13.424;2022-07-29T08:34:57;24.10;64.90
39919;DHT22;25589;51.552;13.424;2022-07-29T08:37:23;24.10;64.40
39919;DHT22;25589;51.552;13.424;2022-07-29T08:39:48;24.20;64.20
39919;DHT22;25589;51.552;13.424;2022-07-29T08:42:14;24.30;64.10
39919;DHT22;25589;51.552;13.424;2022-07-29T08:44:42;24.40;63.80
39919;DHT22;25589;51.552;13.424;2022-07-29T08:47:07;24.50;64.00
39919;DHT22;25589;51.552;13.424;2022-07-29T08:49:33;24.60;63.70
39919;DHT22;25589;51.552;13.424;2022-07-29T08:51:59;24.60;63.50
39919;DHT22;25589;51.552;13.424;2022-07-29T08:54:25;24.60;63.20
39919;DHT22;25589;51.552;13.424;2022-07-29T08:56:51;24.60;63.00
39919;DHT22;25589;51.552;13.424;2022-07-29T08:59:17;24.60;62.80
39919;DHT22;25589;51.552;13.424;2022-07-29T09:01:44;24.60;62.90
39919;DHT22;25589;51.552;13.424;2022-07-29T09:04:10;24.60;63.00
39919;DHT22;25589;51.552;13.424;2022-07-29T09:06:37;24.60;62.80
39919;DHT22;25589;51.552;13.424;2022-07-29T09:09:02;24.60;63.00
39919;DHT22;25589;51.552;13.424;2022-07-29T09:11:29;24.70;62.90
39919;DHT22;25589;51.552;13.424;2022-07-29T09:13:54;24.80;62.80
39919;DHT22;25589;51.552;13.424;2022-07-29T09:16:20;24.90;62.40
39919;DHT22;25589;51.552;13.424;2022-07-29T09:18:46;24.90;62.30
39919;DHT22;25589;51.552;13.424;2022-07-29T09:21:15;25.00;61.90
39919;DHT22;25589;51.552;13.424;2022-07-29T09:24:00;25.10;61.90
39919;DHT22;25589;51.552;13.424;2022-07-29T09:26:34;25.30;61.70
39919;DHT22;25589;51.552;13.424;2022-07-29T09:29:00;25.50;61.60
39919;DHT22;25589;51.552;13.424;2022-07-29T09:31:33;25.70;60.60
39919;DHT22;25589;51.552;13.424;2022-07-29T09:33:59;25.90;60.00
39919;DHT22;25589;51.552;13.424;2022-07-29T09:36:25;25.90;59.30
39919;DHT22;25589;51.552;13.424;2022-07-29T09:38:57;25.90;59.60
39919;DHT22;25589;51.552;13.424;2022-07-29T09:41:24;26.00;58.80
39919;DHT22;25589;51.552;13.424;2022-07-29T09:43:57;26.10;59.30
39919;DHT22;25589;51.552;13.424;2022-07-29T09:46:23;26.20;58.30
39919;DHT22;25589;51.552;13.424;2022-07-29T09:51:34;26.40;58.40
39919;DHT22;25589;51.552;13.424;2022-07-29T09:53:59;26.40;58.00
39919;DHT22;25589;51.552;13.424;2022-07-29T09:56:38;26.50;58.40
39919;DHT22;25589;51.552;13.424;2022-07-29T09:59:07;26.60;58.00
39919;DHT22;25589;51.552;13.424;2022-07-29T10:01:33;26.70;57.70
39919;DHT22;25589;51.552;13.424;2022-07-29T10:03:59;26.80;57.60
39919;DHT22;25589;51.552;13.424;2022-07-29T10:06:24;26.90;57.00
39919;DHT22;25589;51.552;13.424;2022-07-29T10:08:50;27.10;56.80
39919;DHT22;25589;51.552;13.424;2022-07-29T10:11:16;27.20;56.70
39919;DHT22;25589;51.552;13.424;2022-07-29T10:13:42;27.30;56.10
39919;DHT22;25589;51.552;13.424;2022-07-29T10:16:08;27.50;56.50
39919;DHT22;25589;51.552;13.424;2022-07-29T10:18:34;27.70;55.90
39919;DHT22;25589;51.552;13.424;2022-07-29T10:21:00;27.80;55.50
39919;DHT22;25589;51.552;13.424;2022-07-29T10:23:27;27.90;55.10
39919;DHT22;25589;51.552;13.424;2022-07-29T10:25:53;28.00;55.00
39919;DHT22;25589;51.552;13.424;2022-07-29T10:28:18;28.10;54.80
39919;DHT22;25589;51.552;13.424;2022-07-29T10:30:44;28.20;54.40
39919;DHT22;25589;51.552;13.424;2022-07-29T10:35:43;28.50;54.30
39919;DHT22;25589;51.552;13.424;2022-07-29T10:43:40;29.00;53.30
39919;DHT22;25589;51.552;13.424;2022-07-29T10:46:07;29.30;52.80
39919;DHT22;25589;51.552;13.424;2022-07-29T10:48:32;29.20;52.20
39919;DHT22;25589;51.552;13.424;2022-07-29T10:50:59;29.30;52.20
39919;DHT22;25589;51.552;13.424;2022-07-29T10:56:29;29.60;52.10
39919;DHT22;25589;51.552;13.424;2022-07-29T11:01:39;30.00;50.90
39919;DHT22;25589;51.552;13.424;2022-07-29T11:04:04;30.00;50.40
39919;DHT22;25589;51.552;13.424;2022-07-29T11:09:15;30.10;50.10
39919;DHT22;25589;51.552;13.424;2022-07-29T11:11:42;30.30;50.10
39919;DHT22;25589;51.552;13.424;2022-07-29T11:14:07;30.40;49.90
39919;DHT22;25589;51.552;13.424;2022-07-29T11:19:37;30.80;49.00
39919;DHT22;25589;51.552;13.424;2022-07-29T11:22:07;30.90;48.30
39919;DHT22;25589;51.552;13.424;2022-07-29T11:24:33;30.90;48.80
39919;DHT22;25589;51.552;13.424;2022-07-29T11:27:10;31.00;48.30
39919;DHT22;25589;51.552;13.424;2022-07-29T11:29:38;31.10;48.20
39919;DHT22;25589;51.552;13.424;2022-07-29T11:32:08;31.30;48.30
39919;DHT22;25589;51.552;13.424;2022-07-29T11:34:34;31.40;47.50
39919;DHT22;25589;51.552;13.424;2022-07-29T11:39:42;31.60;46.90
39919;DHT22;25589;51.552;13.424;2022-07-29T11:47:20;31.80;46.20
39919;DHT22;25589;51.552;13.424;2022-07-29T11:49:45;32.00;46.10
39919;DHT22;25589;51.552;13.424;2022-07-29T11:52:11;32.00;46.00
39919;DHT22;25589;51.552;13.424;2022-07-29T11:54:36;32.20;45.70
39919;DHT22;25589;51.552;13.424;2022-07-29T11:57:06;32.20;45.50
39919;DHT22;25589;51.552;13.424;2022-07-29T11:59:32;32.40;45.60
39919;DHT22;25589;51.552;13.424;2022-07-29T12:02:03;32.50;45.20
39919;DHT22;25589;51.552;13.424;2022-07-29T12:04:29;32.60;44.90
39919;DHT22;25589;51.552;13.424;2022-07-29T12:06:55;32.60;44.80
39919;DHT22;25589;51.552;13.424;2022-07-29T12:09:22;32.70;44.70
39919;DHT22;25589;51.552;13.424;2022-07-29T12:11:49;32.80;44.70
39919;DHT22;25589;51.552;13.424;2022-07-29T12:14:33;32.70;44.40
39919;DHT22;25589;51.552;13.424;2022-07-29T12:16:59;32.70;45.00
39919;DHT22;25589;51.552;13.424;2022-07-29T12:19:25;32.80;44.30
39919;DHT22;25589;51.552;13.424;2022-07-29T12:21:51;32.70;44.70
39919;DHT22;25589;51.552;13.424;2022-07-29T12:24:17;32.80;44.50
39919;DHT22;25589;51.552;13.424;2022-07-29T12:27:16;32.80;44.40
39919;DHT22;25589;51.552;13.424;2022-07-29T12:29:34;32.80;44.80
39919;DHT22;25589;51.552;13.424;2022-07-29T12:32:00;32.90;44.70
39919;DHT22;25589;51.552;13.424;2022-07-29T12:34:26;33.00;44.20
39919;DHT22;25589;51.552;13.424;2022-07-29T12:36:53;33.30;43.90
39919;DHT22;25589;51.552;13.424;2022-07-29T12:39:19;33.50;43.90
39919;DHT22;25589;51.552;13.424;2022-07-29T12:41:45;33.70;43.20
39919;DHT22;25589;51.552;13.424;2022-07-29T12:44:10;33.70;43.10
39919;DHT22;25589;51.552;13.424;2022-07-29T12:46:36;33.70;42.70
39919;DHT22;25589;51.552;13.424;2022-07-29T12:49:01;33.70;43.10
39919;DHT22;25589;51.552;13.424;2022-07-29T12:51:31;33.90;43.00
39919;DHT22;25589;51.552;13.424;2022-07-29T12:54:04;33.90;42.40
39919;DHT22;25589;51.552;13.424;2022-07-29T12:56:29;33.90;42.80
39919;DHT22;25589;51.552;13.424;2022-07-29T12:58:55;33.90;42.20
39919;DHT22;25589;51.552;13.424;2022-07-29T13:01:21;34.00;42.10
39919;DHT22;25589;51.552;13.424;2022-07-29T13:03:50;34.00;42.10
39919;DHT22;25589;51.552;13.424;2022-07-29T13:06:29;34.10;42.10
39919;DHT22;25589;51.552;13.424;2022-07-29T13:09:01;34.10;42.10
39919;DHT22;25589;51.552;13.424;2022-07-29T13:11:35;34.20;41.70
39919;DHT22;25589;51.552;13.424;2022-07-29T13:14:01;34.20;42.00
39919;DHT22;25589;51.552;13.424;2022-07-29T13:16:27;34.20;41.80
39919;DHT22;25589;51.552;13.424;2022-07-29T13:19:05;34.30;41.60
39919;DHT22;25589;51.552;13.424;2022-07-29T13:21:31;34.40;41.70
39919;DHT22;25589;51.552;13.424;2022-07-29T13:23:57;34.60;41.00
39919;DHT22;25589;51.552;13.424;2022-07-29T13:26:22;34.70;41.30
39919;DHT22;25589;51.552;13.424;2022-07-29T13:28:47;34.50;41.80
39919;DHT22;25589;51.552;13.424;2022-07-29T13:31:13;34.50;41.20
39919;DHT22;25589;51.552;13.424;2022-07-29T13:33:38;34.70;41.30
39919;DHT22;25589;51.552;13.424;2022-07-29T13:36:04;34.80;40.80
39919;DHT22;25589;51.552;13.424;2022-07-29T13:38:30;34.90;40.90
39919;DHT22;25589;51.552;13.424;2022-07-29T13:40:55;34.90;40.50
39919;DHT22;25589;51.552;13.424;2022-07-29T13:43:20;34.80;40.80
39919;DHT22;25589;51.552;13.424;2022-07-29T13:45:46;35.00;40.80
39919;DHT22;25589;51.552;13.424;2022-07-29T13:48:11;35.20;40.60
39919;DHT22;25589;51.552;13.424;2022-07-29T13:50:37;35.60;40.10
39919;DHT22;25589;51.552;13.424;2022-07-29T13:53:03;35.80;39.70
39919;DHT22;25589;51.552;13.424;2022-07-29T13:55:28;35.90;39.60
39919;DHT22;25589;51.552;13.424;2022-07-29T13:57:54;35.90;39.30
39919;DHT22;25589;51.552;13.424;2022-07-29T14:00:19;36.00;39.30
39919;DHT22;25589;51.552;13.424;2022-07-29T14:02:45;36.10;39.00
39919;DHT22;25589;51.552;13.424;2022-07-29T14:05:10;35.90;39.00
39919;DHT22;25589;51.552;13.424;2022-07-29T14:07:37;35.50;39.50
39919;DHT22;25589;51.552;13.424;2022-07-29T14:10:03;35.40;39.80
39919;DHT22;25589;51.552;13.424;2022-07-29T14:12:29;35.30;39.90
39919;DHT22;25589;51.552;13.424;2022-07-29T14:14:55;35.20;40.40
39919;DHT22;25589;51.552;13.424;2022-07-29T14:17:20;35.10;40.30
39919;DHT22;25589;51.552;13.424;2022-07-29T14:19:46;35.00;40.20
39919;DHT22;25589;51.552;13.424;2022-07-29T14:22:11;34.80;40.40
39919;DHT22;25589;51.552;13.424;2022-07-29T14:24:37;34.70;40.30
39919;DHT22;25589;51.552;13.424;2022-07-29T14:27:03;34.60;40.60
39919;DHT22;25589;51.552;13.424;2022-07-29T14:29:29;34.70;40.50
39919;DHT22;25589;51.552;13.424;2022-07-29T14:31:54;34.60;40.40
39919;DHT22;25589;51.552;13.424;2022-07-29T14:34:20;34.50;40.70
39919;DHT22;25589;51.552;13.424;2022-07-29T14:36:46;34.30;40.70
39919;DHT22;25589;51.552;13.424;2022-07-29T14:39:11;34.20;40.70
39919;DHT22;25589;51.552;13.424;2022-07-29T14:41:37;34.10;40.90
39919;DHT22;25589;51.552;13.424;2022-07-29T14:44:03;34.00;41.10
39919;DHT22;25589;51.552;13.424;2022-07-29T14:46:28;34.00;41.20
39919;DHT22;25589;51.552;13.424;2022-07-29T14:48:54;34.10;41.00
39919;DHT22;25589;51.552;13.424;2022-07-29T14:51:19;34.50;40.60
39919;DHT22;25589;51.552;13.424;2022-07-29T14:53:45;35.00;40.20
39919;DHT22;25589;51.552;13.424;2022-07-29T14:56:10;35.40;39.90
39919;DHT22;25589;51.552;13.424;2022-07-29T14:58:36;35.60;39.40
39919;DHT22;25589;51.552;13.424;2022-07-29T15:01:01;35.70;39.30
39919;DHT22;25589;51.552;13.424;2022-07-29T15:03:27;35.60;39.50
39919;DHT22;25589;51.552;13.424;2022-07-29T15:05:55;35.60;39.30
39919;DHT22;25589;51.552;13.424;2022-07-29T15:08:21;35.30;39.40
39919;DHT22;25589;51.552;13.424;2022-07-29T15:10:46;35.00;39.70
39919;DHT22;25589;51.552;13.424;2022-07-29T15:13:12;34.60;40.00
39919;DHT22;25589;51.552;13.424;2022-07-29T15:15:38;34.50;40.30
39919;DHT22;25589;51.552;13.424;2022-07-29T15:18:03;34.30;40.30
39919;DHT22;25589;51.552;13.424;2022-07-29T15:20:29;34.10;40.60
39919;DHT22;25589;51.552;13.424;2022-07-29T15:22:55;33.80;40.90
39919;DHT22;25589;51.552;13.424;2022-07-29T15:25:21;33.70;41.10
39919;DHT22;25589;51.552;13.424;2022-07-29T15:27:46;33.70;41.60
39919;DHT22;25589;51.552;13.424;2022-07-29T15:30:12;33.70;41.50
39919;DHT22;25589;51.552;13.424;2022-07-29T15:32:38;33.70;41.30
39919;DHT22;25589;51.552;13.424;2022-07-29T15:35:03;33.60;41.40
39919;DHT22;25589;51.552;13.424;2022-07-29T15:37:29;33.60;41.40
39919;DHT22;25589;51.552;13.424;2022-07-29T15:39:54;33.60;41.40
39919;DHT22;25589;51.552;13.424;2022-07-29T15:42:20;33.60;41.20
39919;DHT22;25589;51.552;13.424;2022-07-29T15:44:45;33.70;41.50
39919;DHT22;25589;51.552;13.424;2022-07-29T15:47:11;33.70;41.60
39919;DHT22;25589;51.552;13.424;2022-07-29T15:49:38;33.80;41.20
39919;DHT22;25589;51.552;13.424;2022-07-29T15:52:04;33.80;41.10
39919;DHT22;25589;51.552;13.424;2022-07-29T15:54:33;34.30;40.80
39919;DHT22;25589;51.552;13.424;2022-07-29T15:56:59;34.90;39.90